createdAt,value
2017-11-18T00:01:47.098Z,6.67
2017-11-18T00:04:17.052Z,6.33
2017-11-18T00:06:46.221Z,5.60
2017-11-18T00:09:16.286Z,7.30
2017-11-18T00:11:45.462Z,6.20
2017-11-18T00:14:14.738Z,6.33
2017-11-18T00:16:43.922Z,6.80
2017-11-18T00:19:13.889Z,6.87
2017-11-18T00:21:43.269Z,6.60
2017-11-18T00:24:12.499Z,6.33
2017-11-18T00:26:43.214Z,6.40
2017-11-18T00:29:12.379Z,6.73
2017-11-18T00:31:41.567Z,6.30
2017-11-18T00:34:11.503Z,6.30
2017-11-18T00:36:40.715Z,5.20
2017-11-18T00:39:09.882Z,5.50
2017-11-18T00:41:39.069Z,5.63
2017-11-18T00:44:08.217Z,5.93
2017-11-18T00:46:37.402Z,6.30
2017-11-18T00:49:06.715Z,6.50
2017-11-18T00:51:35.922Z,7.13
2017-11-18T00:54:05.108Z,7.30
2017-11-18T00:56:34.386Z,6.70
2017-11-18T00:59:03.617Z,6.53
2017-11-18T01:01:32.860Z,6.90
2017-11-18T01:04:02.034Z,6.67
2017-11-18T01:06:31.214Z,8.70
2017-11-18T01:09:00.458Z,6.30
2017-11-18T01:11:29.631Z,6.50
2017-11-18T01:13:59.601Z,5.90
2017-11-18T01:16:28.853Z,7.60
2017-11-18T01:18:58.900Z,6.00
2017-11-18T01:21:28.831Z,7.20
2017-11-18T01:23:58.020Z,6.47
2017-11-18T01:26:27.208Z,6.00
2017-11-18T01:28:56.378Z,7.17
2017-11-18T01:31:26.379Z,6.83
2017-11-18T01:33:56.470Z,5.50
2017-11-18T01:36:25.660Z,7.30
2017-11-18T01:38:56.666Z,6.57
2017-11-18T01:41:25.957Z,6.90
2017-11-18T01:43:55.286Z,6.43
2017-11-18T01:46:24.494Z,7.20
2017-11-18T01:48:53.772Z,6.17
2017-11-18T01:51:22.998Z,8.20
2017-11-18T01:53:52.314Z,6.20
2017-11-18T01:56:21.477Z,6.03
2017-11-18T01:58:50.742Z,6.30
2017-11-18T02:01:19.911Z,6.90
2017-11-18T02:03:49.143Z,7.20
2017-11-18T02:06:18.378Z,7.50
2017-11-18T02:08:47.564Z,7.10
2017-11-18T02:11:16.758Z,6.50
2017-11-18T02:13:45.943Z,7.57
2017-11-18T02:16:15.110Z,9.03
2017-11-18T02:18:45.070Z,7.10
2017-11-18T02:21:14.217Z,8.30
2017-11-18T02:23:44.418Z,6.60
2017-11-18T02:26:13.578Z,7.27
2017-11-18T02:28:42.720Z,7.20
2017-11-18T02:31:13.416Z,7.37
2017-11-18T02:33:42.721Z,7.17
2017-11-18T02:36:11.897Z,7.93
2017-11-18T02:38:41.102Z,8.33
2017-11-18T02:41:10.299Z,8.13
2017-11-18T02:43:39.462Z,6.90
2017-11-18T02:46:09.401Z,7.67
2017-11-18T02:48:38.553Z,6.93
2017-11-18T02:51:07.729Z,7.20
2017-11-18T02:53:36.883Z,7.20
2017-11-18T02:56:06.075Z,6.17
2017-11-18T02:58:35.246Z,6.63
2017-11-18T03:01:05.195Z,6.43
2017-11-18T03:03:34.366Z,6.30
2017-11-18T03:06:03.640Z,6.53
2017-11-18T03:08:32.903Z,7.17
2017-11-18T03:11:02.084Z,6.40
2017-11-18T03:13:31.366Z,6.80
2017-11-18T03:16:01.320Z,5.90
2017-11-18T03:18:30.500Z,5.70
2017-11-18T03:20:59.784Z,6.03
2017-11-18T03:23:29.039Z,6.13
2017-11-18T03:25:58.204Z,6.50
2017-11-18T03:28:27.397Z,7.10
2017-11-18T03:30:56.720Z,4.87
2017-11-18T03:33:25.902Z,5.77
2017-11-18T03:35:55.155Z,5.73
2017-11-18T03:38:25.097Z,5.37
2017-11-18T03:40:54.629Z,5.87
2017-11-18T03:43:23.803Z,5.80
2017-11-18T03:45:52.996Z,4.80
2017-11-18T03:48:22.180Z,5.37
2017-11-18T03:50:51.380Z,5.03
2017-11-18T03:53:20.630Z,6.13
2017-11-18T03:55:49.798Z,5.20
2017-11-18T03:58:19.115Z,5.97
2017-11-18T04:00:53.799Z,5.43
2017-11-18T04:03:23.027Z,5.07
2017-11-18T04:05:52.189Z,4.70
2017-11-18T04:08:21.378Z,5.20
2017-11-18T04:10:51.319Z,4.80
2017-11-18T04:13:20.473Z,5.17
2017-11-18T04:15:50.417Z,5.60
2017-11-18T04:18:19.613Z,5.03
2017-11-18T04:20:48.882Z,4.30
2017-11-18T04:23:18.846Z,4.73
2017-11-18T04:25:48.124Z,4.53
2017-11-18T04:28:17.285Z,4.70
2017-11-18T04:30:46.594Z,5.10
2017-11-18T04:33:16.642Z,4.40
2017-11-18T04:35:45.821Z,4.23
2017-11-18T04:38:15.756Z,4.80
2017-11-18T04:40:44.939Z,4.40
2017-11-18T04:43:14.814Z,4.20
2017-11-18T04:45:44.858Z,4.80
2017-11-18T04:48:15.099Z,4.87
2017-11-18T04:50:44.354Z,5.90
2017-11-18T04:53:13.530Z,4.70
2017-11-18T04:55:42.710Z,5.57
2017-11-18T04:58:11.908Z,4.80
2017-11-18T05:00:41.117Z,4.93
2017-11-18T05:03:10.447Z,4.63
2017-11-18T05:05:40.398Z,5.10
2017-11-18T05:08:09.592Z,5.40
2017-11-18T05:10:38.789Z,4.17
2017-11-18T05:13:07.990Z,4.83
2017-11-18T05:15:37.164Z,4.27
2017-11-18T05:18:07.216Z,5.20
2017-11-18T05:20:37.336Z,4.67
2017-11-18T05:23:07.251Z,5.67
2017-11-18T05:25:36.416Z,5.10
2017-11-18T05:28:06.367Z,6.37
2017-11-18T05:30:35.517Z,5.73
2017-11-18T05:33:04.845Z,4.93
2017-11-18T05:35:34.082Z,5.70
2017-11-18T05:38:03.507Z,5.10
2017-11-18T05:40:34.355Z,5.30
2017-11-18T05:43:04.364Z,4.73
2017-11-18T05:45:35.186Z,4.60
2017-11-18T05:48:05.169Z,4.90
2017-11-18T05:50:34.418Z,4.93
2017-11-18T05:53:03.609Z,4.37
2017-11-18T05:55:32.965Z,5.07
2017-11-18T05:58:02.160Z,4.57
2017-11-18T06:00:31.299Z,4.70
2017-11-18T06:03:01.336Z,4.23
2017-11-18T06:05:31.258Z,4.30
2017-11-18T06:08:00.458Z,5.00
2017-11-18T06:10:29.625Z,4.40
2017-11-18T06:12:59.596Z,4.77
2017-11-18T06:15:28.783Z,4.70
2017-11-18T06:17:57.994Z,5.37
2017-11-18T06:20:27.199Z,5.53
2017-11-18T06:22:56.391Z,4.90
2017-11-18T06:25:25.568Z,6.50
2017-11-18T06:27:54.763Z,5.70
2017-11-18T06:30:23.940Z,5.37
2017-11-18T06:32:53.875Z,7.00
2017-11-18T06:35:23.119Z,5.33
2017-11-18T06:37:52.502Z,6.07
2017-11-18T06:40:21.709Z,5.43
2017-11-18T06:42:50.894Z,6.03
2017-11-18T06:45:20.080Z,5.97
2017-11-18T06:47:49.255Z,4.90
2017-11-18T06:50:18.589Z,5.60
2017-11-18T06:52:47.752Z,5.27
2017-11-18T06:55:17.056Z,6.20
2017-11-18T06:57:46.243Z,5.73
2017-11-18T07:00:16.151Z,6.50
2017-11-18T07:02:45.383Z,6.33
2017-11-18T07:05:14.658Z,5.73
2017-11-18T07:07:43.863Z,6.60
2017-11-18T07:10:13.879Z,6.57
2017-11-18T07:12:43.066Z,7.07
2017-11-18T07:15:13.028Z,6.50
2017-11-18T07:17:42.318Z,6.10
2017-11-18T07:20:11.526Z,5.93
2017-11-18T07:22:40.688Z,6.67
2017-11-18T07:25:10.015Z,6.40
2017-11-18T07:27:39.193Z,6.20
2017-11-18T07:30:08.377Z,5.57
2017-11-18T07:32:37.578Z,6.67
2017-11-18T07:35:06.802Z,5.77
2017-11-18T07:37:35.974Z,5.83
2017-11-18T07:40:05.161Z,7.20
2017-11-18T07:42:34.461Z,6.60
2017-11-18T07:45:03.647Z,7.10
2017-11-18T07:47:32.811Z,7.80
2017-11-18T07:50:03.521Z,6.40
2017-11-18T07:52:32.767Z,6.60
2017-11-18T07:55:02.723Z,6.87
2017-11-18T07:57:31.907Z,7.50
2017-11-18T08:00:01.085Z,8.33
2017-11-18T08:02:30.363Z,6.93
2017-11-18T08:05:00.299Z,6.60
2017-11-18T08:07:30.238Z,6.40
2017-11-18T08:09:59.410Z,6.07
2017-11-18T08:12:28.754Z,7.40
2017-11-18T08:14:57.928Z,6.70
2017-11-18T08:17:27.161Z,6.40
2017-11-18T08:19:56.318Z,6.27
2017-11-18T08:22:25.508Z,7.60
2017-11-18T08:24:54.762Z,7.67
2017-11-18T08:27:23.939Z,6.70
2017-11-18T08:29:53.151Z,7.07
2017-11-18T08:32:22.385Z,6.93
2017-11-18T08:34:51.561Z,7.83
2017-11-18T08:37:21.621Z,6.63
2017-11-18T08:39:50.812Z,6.40
2017-11-18T08:42:19.965Z,6.50
2017-11-18T08:44:49.149Z,6.80
2017-11-18T08:47:18.333Z,7.70
2017-11-18T08:49:47.514Z,6.60
2017-11-18T08:52:16.686Z,6.30
2017-11-18T08:54:45.846Z,6.53
2017-11-18T08:57:15.789Z,6.87
2017-11-18T08:59:44.959Z,6.50
2017-11-18T09:02:14.231Z,7.33
2017-11-18T09:04:43.419Z,6.03
2017-11-18T09:07:12.585Z,6.00
2017-11-18T09:09:41.782Z,6.43
2017-11-18T09:12:11.031Z,5.70
2017-11-18T09:14:40.197Z,6.40
2017-11-18T09:17:10.262Z,7.13
2017-11-18T09:19:39.425Z,6.80
2017-11-18T09:22:08.770Z,5.20
2017-11-18T09:24:38.710Z,5.20
2017-11-18T09:27:07.891Z,4.90
2017-11-18T09:29:38.023Z,5.27
2017-11-18T09:32:07.304Z,7.00
2017-11-18T09:34:37.255Z,4.80
2017-11-18T09:37:06.469Z,5.47
2017-11-18T09:39:35.635Z,5.27
2017-11-18T09:42:04.800Z,4.97
2017-11-18T09:44:34.765Z,5.97
2017-11-18T09:47:03.924Z,5.70
2017-11-18T09:49:33.878Z,6.50
2017-11-18T09:52:03.308Z,6.00
2017-11-18T09:54:32.493Z,5.60
2017-11-18T09:57:01.736Z,5.80
2017-11-18T09:59:30.927Z,6.20
2017-11-18T10:02:00.871Z,7.03
2017-11-18T10:04:30.088Z,6.13
2017-11-18T10:06:59.265Z,6.37
2017-11-18T10:09:28.524Z,6.40
2017-11-18T10:11:57.777Z,7.63
2017-11-18T10:14:27.046Z,6.80
2017-11-18T10:16:56.978Z,7.20
2017-11-18T10:19:26.155Z,7.10
2017-11-18T10:21:56.202Z,6.60
2017-11-18T10:24:25.397Z,7.30
2017-11-18T10:26:54.575Z,7.80
2017-11-18T10:29:23.744Z,7.70
2017-11-18T10:31:53.726Z,8.37
2017-11-18T10:34:22.922Z,8.53
2017-11-18T10:36:52.093Z,7.67
2017-11-18T10:39:21.291Z,8.87
2017-11-18T10:41:50.610Z,8.33
2017-11-18T10:44:19.805Z,8.47
2017-11-18T10:46:48.963Z,8.50
2017-11-18T10:49:18.162Z,8.27
2017-11-18T10:51:47.385Z,8.90
2017-11-18T10:54:16.541Z,8.40
2017-11-18T10:56:45.705Z,8.40
2017-11-18T10:59:15.113Z,8.13
2017-11-18T11:01:44.307Z,9.10
2017-11-18T11:04:13.499Z,8.80
2017-11-18T11:06:42.755Z,10.00
2017-11-18T11:09:11.939Z,8.60
2017-11-18T11:11:41.890Z,7.80
2017-11-18T11:14:11.180Z,8.33
2017-11-18T11:16:40.338Z,8.13
2017-11-18T11:19:10.309Z,8.00
2017-11-18T11:21:39.502Z,7.60
2017-11-18T11:24:08.678Z,8.10
2017-11-18T11:26:37.858Z,8.30
2017-11-18T11:29:07.076Z,7.83
2017-11-18T11:31:36.382Z,9.30
2017-11-18T11:34:05.561Z,8.80
2017-11-18T11:36:35.359Z,8.60
2017-11-18T11:39:04.619Z,7.70
2017-11-18T11:41:34.766Z,7.60
2017-11-18T11:44:04.711Z,9.20
2017-11-18T11:46:34.004Z,7.77
2017-11-18T11:49:03.490Z,8.50
2017-11-18T11:51:33.480Z,8.23
2017-11-18T11:54:02.810Z,7.43
2017-11-18T11:56:32.741Z,8.53
2017-11-18T11:59:01.967Z,7.30
2017-11-18T12:01:31.221Z,7.90
2017-11-18T12:04:00.396Z,7.17
2017-11-18T12:06:30.374Z,7.67
2017-11-18T12:08:59.571Z,6.90
2017-11-18T12:11:28.765Z,6.77
2017-11-18T12:13:58.046Z,7.87
2017-11-18T12:16:27.237Z,6.57
2017-11-18T12:19:45.066Z,6.10
2017-11-18T12:25:25.666Z,8.73
2017-11-18T12:27:54.830Z,6.40
2017-11-18T12:30:24.772Z,6.67
2017-11-18T12:32:53.929Z,8.40
2017-11-18T12:35:23.120Z,6.70
2017-11-18T12:37:52.280Z,6.80
2017-11-18T12:40:21.480Z,5.80
2017-11-18T12:42:50.820Z,6.83
2017-11-18T12:45:20.004Z,7.00
2017-11-18T12:47:49.174Z,6.57
2017-11-18T12:50:18.375Z,7.10
2017-11-18T12:52:47.548Z,8.63
2017-11-18T12:55:16.713Z,6.30
2017-11-18T12:57:46.652Z,6.23
2017-11-18T13:00:15.826Z,6.23
2017-11-18T13:02:45.045Z,6.33
2017-11-18T13:05:14.353Z,5.90
2017-11-18T13:07:43.538Z,5.63
2017-11-18T13:10:12.777Z,5.20
2017-11-18T13:12:41.955Z,5.70
2017-11-18T13:15:11.882Z,6.53
2017-11-18T13:17:41.071Z,5.67
2017-11-18T13:20:10.283Z,6.10
2017-11-18T13:22:39.465Z,5.20
2017-11-18T13:25:08.669Z,4.73
2017-11-18T13:27:39.687Z,5.43
2017-11-18T13:30:08.881Z,5.50
2017-11-18T13:32:38.128Z,6.00
2017-11-18T13:35:07.339Z,5.53
2017-11-18T13:37:37.396Z,5.47
2017-11-18T13:40:07.345Z,6.10
2017-11-18T13:42:36.683Z,5.13
2017-11-18T13:45:05.865Z,6.27
2017-11-18T13:47:36.628Z,5.53
2017-11-18T13:50:06.596Z,5.90
2017-11-18T13:52:35.825Z,5.60
2017-11-18T13:55:05.776Z,5.70
2017-11-18T13:57:35.011Z,6.37
2017-11-18T14:00:04.269Z,5.70
2017-11-18T14:02:33.441Z,5.53
2017-11-18T14:05:03.445Z,6.23
2017-11-18T14:07:32.649Z,6.70
2017-11-18T14:10:01.888Z,7.40
2017-11-18T14:12:31.189Z,7.10
2017-11-18T14:15:00.525Z,7.20
2017-11-18T14:17:31.195Z,6.73
2017-11-18T14:20:00.341Z,5.77
2017-11-18T14:22:29.500Z,6.43
2017-11-18T14:24:58.686Z,5.97
2017-11-18T14:27:27.861Z,6.90
2017-11-18T14:29:57.803Z,6.60
2017-11-18T14:32:27.247Z,6.50
2017-11-18T14:34:56.797Z,5.93
2017-11-18T14:37:26.766Z,7.50
2017-11-18T14:39:55.903Z,7.30
2017-11-18T14:42:25.091Z,6.50
2017-11-18T14:44:55.049Z,6.70
2017-11-18T14:47:24.243Z,5.70
2017-11-18T14:49:53.425Z,6.73
2017-11-18T14:52:22.739Z,8.40
2017-11-18T14:54:51.930Z,7.33
2017-11-18T14:57:21.129Z,7.17
2017-11-18T14:59:50.310Z,7.13
2017-11-18T15:02:19.474Z,7.40
2017-11-18T15:04:48.779Z,7.87
2017-11-18T15:07:17.968Z,7.13
2017-11-18T15:09:48.639Z,7.63
2017-11-18T15:12:17.808Z,8.37
2017-11-18T15:14:52.179Z,7.67
2017-11-18T15:17:26.793Z,7.20
2017-11-18T15:20:01.368Z,7.80
2017-11-18T15:22:35.457Z,7.43
2017-11-18T15:25:10.249Z,8.30
2017-11-18T15:27:39.816Z,7.70
2017-11-18T15:30:14.513Z,10.10
2017-11-18T15:32:44.132Z,8.40
2017-11-18T15:48:50.537Z,9.23
2017-11-18T16:04:52.864Z,2.60
2017-11-18T16:07:22.828Z,2.67
2017-11-18T16:09:52.017Z,1.80
2017-11-18T16:12:21.196Z,2.10
2017-11-18T16:14:50.483Z,1.67
2017-11-18T16:17:19.647Z,1.50
2017-11-18T16:19:48.818Z,3.03
2017-11-18T16:22:17.978Z,2.73
2017-11-18T16:24:47.214Z,2.50
2017-11-18T16:27:16.436Z,8.17
2017-11-18T16:29:45.869Z,3.63
2017-11-18T16:32:15.805Z,10.67
2017-11-18T16:34:45.021Z,5.20
2017-11-18T16:37:14.203Z,4.63
2017-11-18T16:39:43.396Z,5.67
2017-11-18T16:42:12.561Z,4.70
2017-11-18T16:44:42.598Z,3.50
2017-11-18T16:47:11.727Z,2.87
2017-11-18T16:49:40.901Z,2.40
2017-11-18T16:52:10.128Z,2.60
2017-11-18T16:54:39.311Z,2.27
2017-11-18T16:57:09.237Z,2.17
2017-11-18T16:59:39.943Z,5.63
2017-11-18T17:02:09.142Z,3.23
2017-11-18T17:04:38.471Z,2.93
2017-11-18T17:07:07.623Z,2.67
2017-11-18T17:09:36.802Z,3.23
2017-11-18T17:12:06.798Z,3.20
2017-11-18T17:14:35.970Z,4.10
2017-11-18T17:17:05.405Z,2.77
2017-11-18T17:19:34.635Z,2.97
2017-11-18T17:22:03.818Z,2.40
2017-11-18T17:24:33.746Z,3.37
2017-11-18T17:27:02.915Z,3.10
2017-11-18T17:29:32.812Z,4.23
2017-11-18T17:32:02.018Z,2.67
2017-11-18T17:34:32.683Z,2.73
2017-11-18T17:37:01.877Z,2.70
2017-11-18T17:39:31.826Z,5.73
2017-11-18T17:42:01.046Z,5.60
2017-11-18T17:44:30.206Z,7.97
2017-11-18T17:46:59.380Z,4.70
2017-11-18T17:49:28.642Z,2.90
2017-11-18T17:51:59.377Z,3.70
2017-11-18T17:54:28.773Z,3.97
2017-11-18T17:56:57.943Z,3.57
2017-11-18T17:59:27.369Z,3.57
2017-11-18T18:01:56.510Z,3.73
2017-11-18T18:04:25.720Z,6.00
2017-11-18T18:06:54.929Z,5.63
2017-11-18T18:09:24.080Z,4.93
2017-11-18T18:11:54.028Z,6.10
2017-11-18T18:14:23.335Z,5.27
2017-11-18T18:16:52.631Z,6.67
2017-11-18T18:19:22.578Z,6.10
2017-11-18T18:21:51.760Z,7.13
2017-11-18T18:24:20.946Z,10.20
2017-11-18T18:26:50.135Z,12.60
2017-11-18T18:29:19.315Z,8.30
2017-11-18T18:31:48.536Z,7.47
2017-11-18T18:34:17.739Z,8.00
2017-11-18T18:36:46.941Z,7.73
2017-11-18T18:39:16.129Z,10.03
2017-11-18T18:41:45.351Z,8.80
2017-11-18T18:44:14.556Z,8.43
2017-11-18T18:46:43.697Z,6.93
2017-11-18T18:49:13.627Z,9.40
2017-11-18T18:51:42.865Z,13.00
2017-11-18T18:54:12.076Z,9.83
2017-11-18T18:56:42.137Z,11.27
2017-11-18T18:59:11.346Z,9.57
2017-11-18T19:01:40.625Z,10.10
2017-11-18T19:04:09.820Z,11.70
2017-11-18T19:06:39.021Z,16.30
2017-11-18T19:09:08.187Z,18.33
2017-11-18T19:11:37.445Z,13.37
2017-11-18T19:14:06.855Z,12.03
2017-11-18T19:16:37.766Z,14.20
2017-11-18T19:19:06.980Z,13.50
2017-11-18T19:21:36.170Z,12.97
2017-11-18T19:24:05.335Z,17.77
2017-11-18T19:26:34.524Z,12.20
2017-11-18T19:29:04.444Z,14.00
2017-11-18T19:31:33.666Z,13.07
2017-11-18T19:34:02.875Z,15.00
2017-11-18T19:36:32.101Z,11.70
2017-11-18T19:39:01.272Z,11.13
2017-11-18T19:41:30.409Z,11.67
2017-11-18T19:44:00.440Z,17.20
2017-11-18T19:46:31.404Z,22.70
2017-11-18T19:49:00.863Z,23.70
2017-11-18T19:51:30.951Z,22.70
2017-11-18T19:54:00.151Z,22.10
2017-11-18T19:56:29.477Z,25.63
2017-11-18T19:58:59.525Z,25.60
2017-11-18T20:01:29.458Z,17.53
2017-11-18T20:03:58.636Z,17.23
2017-11-18T20:06:27.847Z,15.67
2017-11-18T20:08:57.048Z,11.70
2017-11-18T20:11:26.226Z,11.23
2017-11-18T20:13:55.418Z,11.97
2017-11-18T20:16:24.625Z,10.00
2017-11-18T20:18:53.807Z,9.33
2017-11-18T20:21:23.823Z,9.63
2017-11-18T20:23:53.739Z,9.80
2017-11-18T20:26:22.951Z,12.20
2017-11-18T20:28:52.173Z,10.03
2017-11-18T20:31:21.450Z,11.67
2017-11-18T20:33:51.381Z,8.97
2017-11-18T20:36:20.594Z,7.40
2017-11-18T20:38:49.779Z,8.30
2017-11-18T20:41:19.056Z,8.23
2017-11-18T20:43:48.366Z,7.63
2017-11-18T20:46:17.666Z,7.20
2017-11-18T20:48:46.891Z,7.30
2017-11-18T20:51:16.058Z,7.53
2017-11-18T20:53:45.258Z,6.93
2017-11-18T20:56:14.435Z,8.30
2017-11-18T20:58:43.592Z,10.67
2017-11-18T21:01:14.273Z,13.40
2017-11-18T21:03:43.470Z,11.23
2017-11-18T21:06:12.668Z,11.50
2017-11-18T21:08:42.705Z,12.20
2017-11-18T21:11:11.904Z,10.90
2017-11-18T21:13:41.080Z,8.80
2017-11-18T21:16:10.398Z,8.90
2017-11-18T21:18:39.632Z,9.73
2017-11-18T21:21:10.385Z,9.17
2017-11-18T21:23:40.350Z,9.30
2017-11-18T21:26:09.551Z,11.10
2017-11-18T21:28:38.671Z,10.43
2017-11-18T21:31:07.881Z,11.70
2017-11-18T21:33:37.940Z,10.97
2017-11-18T21:36:07.109Z,10.30
2017-11-18T21:38:37.256Z,10.40
2017-11-18T21:41:06.520Z,11.83
2017-11-18T21:43:36.475Z,10.73
2017-11-18T21:46:05.721Z,16.37
2017-11-18T21:48:34.942Z,13.90
2017-11-18T21:51:04.887Z,13.67
2017-11-18T21:53:34.077Z,14.00
2017-11-18T21:56:03.375Z,15.63
2017-11-18T21:58:32.621Z,15.30
2017-11-18T22:01:01.893Z,15.00
2017-11-18T22:03:31.183Z,13.63
2017-11-18T22:06:00.381Z,12.97
2017-11-18T22:08:29.560Z,13.87
2017-11-18T22:10:58.981Z,12.10
2017-11-18T22:13:28.151Z,12.40
2017-11-18T22:15:57.358Z,14.07
2017-11-18T22:18:26.538Z,12.10
2017-11-18T22:20:55.760Z,11.27
2017-11-18T22:23:25.086Z,11.43
2017-11-18T22:25:55.238Z,12.60
2017-11-18T22:28:25.186Z,14.10
2017-11-18T22:30:54.385Z,12.90
2017-11-18T22:33:23.605Z,9.67
2017-11-18T22:35:53.118Z,9.43
2017-11-18T22:38:22.295Z,9.50
2017-11-18T22:40:51.558Z,9.67
2017-11-18T22:43:21.516Z,9.27
2017-11-18T22:45:50.823Z,8.20
2017-11-18T22:48:20.013Z,9.63
2017-11-18T22:50:49.456Z,6.70
2017-11-18T22:53:20.155Z,8.70
2017-11-18T22:55:49.281Z,9.90
2017-11-18T22:58:18.465Z,9.47
2017-11-18T23:00:47.642Z,8.47
2017-11-18T23:03:16.835Z,10.10
2017-11-18T23:05:46.006Z,8.00
2017-11-18T23:08:15.194Z,7.87
2017-11-18T23:10:44.387Z,9.40
2017-11-18T23:13:14.350Z,9.60
2017-11-18T23:15:43.666Z,8.20
2017-11-18T23:18:12.863Z,7.73
2017-11-18T23:20:42.035Z,7.80
2017-11-18T23:23:11.197Z,7.73
2017-11-18T23:25:40.412Z,7.97
2017-11-18T23:28:09.617Z,8.50
2017-11-18T23:30:38.799Z,9.03
2017-11-18T23:33:07.985Z,8.77
2017-11-18T23:35:37.193Z,8.27
2017-11-18T23:38:06.399Z,8.93
2017-11-18T23:40:36.337Z,7.83
2017-11-18T23:43:05.507Z,8.73
2017-11-18T23:45:34.708Z,8.67
2017-11-18T23:48:03.882Z,8.57
2017-11-18T23:50:33.054Z,8.63
2017-11-18T23:53:03.017Z,9.17
2017-11-18T23:55:32.212Z,8.40
2017-11-18T23:58:01.401Z,9.60
